Time;durP1;ratioP1;P1;durP2;ratioP2;P2;SDS_P1;SDS_P2;PMS_P1;PMS_P2;Temp;Humidity;BMP_temperature;BMP_pressure;BME280_temperature;BME280_humidity;BME280_pressure;Samples;Min_cycle;Max_cycle;Signal;HPM_P1;HPM_P2
2022/11/16 00:02:12;;;;;;;20.90;18.42;;;8.70;99.90;;;;;;5131128;27;20226;-85
2022/11/16 00:04:41;;;;;;;30.80;21.42;;;8.80;99.90;;;;;;5131562;27;20199;-85
2022/11/16 00:07:11;;;;;;;27.58;20.27;;;8.80;99.90;;;;;;5130783;28;20218;-85
2022/11/16 00:09:39;;;;;;;26.27;20.50;;;8.70;99.90;;;;;;5131330;28;20206;-85
2022/11/16 00:12:11;;;;;;;26.15;19.30;;;8.70;99.90;;;;;;5130752;28;20226;-84
2022/11/16 00:14:39;;;;;;;23.25;19.95;;;8.70;99.90;;;;;;5131348;28;20214;-85
2022/11/16 00:17:07;;;;;;;30.15;21.02;;;8.70;99.90;;;;;;5130616;28;20214;-85
2022/11/16 00:19:35;;;;;;;25.80;21.10;;;8.70;99.90;;;;;;5130957;28;20203;-86
2022/11/16 00:22:04;;;;;;;29.95;22.05;;;8.70;99.90;;;;;;5131295;28;20223;-85
2022/11/16 00:24:33;;;;;;;23.00;19.75;;;8.70;99.90;;;;;;5131104;28;20214;-85
2022/11/16 00:27:02;;;;;;;32.55;22.73;;;8.70;99.90;;;;;;5130571;28;20211;-85
2022/11/16 00:29:30;;;;;;;25.77;21.58;;;8.70;99.90;;;;;;5130815;28;20207;-85
2022/11/16 00:31:58;;;;;;;27.98;22.55;;;8.70;99.90;;;;;;5131290;28;20234;-85
2022/11/16 00:34:27;;;;;;;31.52;22.13;;;8.70;99.90;;;;;;5131052;28;20195;-85
2022/11/16 00:36:55;;;;;;;40.05;24.60;;;8.70;99.90;;;;;;5130819;28;20215;-85
2022/11/16 00:39:24;;;;;;;36.08;24.02;;;8.70;99.90;;;;;;5126903;28;20242;-85
2022/11/16 00:41:54;;;;;;;28.40;20.92;;;8.70;99.90;;;;;;5130810;28;20219;-85
2022/11/16 00:44:22;;;;;;;25.73;21.52;;;8.70;99.90;;;;;;5130585;28;20205;-85
2022/11/16 00:46:50;;;;;;;46.00;23.70;;;8.70;99.90;;;;;;5130804;28;20211;-85
2022/11/16 00:49:18;;;;;;;35.95;23.33;;;8.70;99.90;;;;;;5129840;28;20223;-85
2022/11/16 00:51:46;;;;;;;29.65;22.38;;;8.80;99.90;;;;;;5130541;28;20223;-85
2022/11/16 00:54:15;;;;;;;32.50;22.83;;;8.70;99.90;;;;;;5130941;28;20225;-85
2022/11/16 00:56:43;;;;;;;27.00;23.27;;;8.70;99.90;;;;;;5130802;28;20207;-85
2022/11/16 00:59:13;;;;;;;31.15;22.63;;;8.80;99.90;;;;;;5129925;28;20211;-85
2022/11/16 01:01:41;;;;;;;32.33;24.02;;;8.70;99.90;;;;;;5130509;28;20218;-85
2022/11/16 01:04:09;;;;;;;38.03;26.50;;;8.70;99.90;;;;;;5132687;27;20214;-85
2022/11/16 01:06:37;;;;;;;36.15;24.38;;;8.70;99.90;;;;;;5134348;27;20218;-85
2022/11/16 01:09:06;;;;;;;29.42;23.73;;;8.70;99.90;;;;;;5134178;27;20222;-85
2022/11/16 01:14:21;;;;;;;32.95;23.70;;;8.70;99.90;;;;;;5134550;27;20226;-85
2022/11/16 01:16:50;;;;;;;43.10;26.40;;;8.70;99.90;;;;;;5132996;27;20218;-85
2022/11/16 01:19:18;;;;;;;33.00;26.60;;;8.70;99.90;;;;;;5133942;27;20207;-85
2022/11/16 01:21:46;;;;;;;39.00;26.48;;;8.70;99.90;;;;;;5134096;27;20238;-85
2022/11/16 01:24:14;;;;;;;39.13;25.33;;;8.70;99.90;;;;;;5134273;27;20214;-85
2022/11/16 01:26:42;;;;;;;54.67;26.17;;;8.70;99.90;;;;;;5133776;27;20258;-85
2022/11/16 01:29:10;;;;;;;46.63;26.25;;;8.70;99.90;;;;;;5133538;27;20265;-85
2022/11/16 01:31:40;;;;;;;37.67;24.63;;;8.70;99.90;;;;;;5134303;27;20221;-86
2022/11/16 01:34:09;;;;;;;27.80;23.98;;;8.80;99.90;;;;;;5135883;27;20255;-85
2022/11/16 01:36:38;;;;;;;32.70;24.63;;;8.70;99.90;;;;;;5135823;27;20226;-85
2022/11/16 01:39:06;;;;;;;30.52;22.98;;;8.80;99.90;;;;;;5136311;27;20198;-85
2022/11/16 01:41:34;;;;;;;31.60;23.88;;;8.70;99.90;;;;;;5135534;27;20210;-85
2022/11/16 01:44:04;;;;;;;37.10;26.65;;;8.70;99.90;;;;;;5135731;27;20191;-85
2022/11/16 01:46:32;;;;;;;33.05;25.23;;;8.70;99.90;;;;;;5135860;27;20199;-86
2022/11/16 01:49:08;;;;;;;35.22;23.83;;;8.70;99.90;;;;;;5135028;27;20215;-85
2022/11/16 01:51:37;;;;;;;35.90;24.05;;;8.70;99.90;;;;;;5136053;27;20191;-85
2022/11/16 01:54:08;;;;;;;33.88;23.67;;;8.70;99.90;;;;;;5135226;27;20218;-85
2022/11/16 01:56:38;;;;;;;36.63;24.90;;;8.70;99.90;;;;;;5135720;27;20203;-85
2022/11/16 01:59:07;;;;;;;36.05;23.83;;;8.60;99.90;;;;;;5135131;27;20198;-84
2022/11/16 02:01:35;;;;;;;25.25;21.60;;;8.60;99.90;;;;;;5134981;27;20207;-85
2022/11/16 02:04:05;;;;;;;37.70;24.25;;;8.60;99.90;;;;;;5135462;27;20202;-85
2022/11/16 02:06:44;;;;;;;34.92;25.20;;;8.60;99.90;;;;;;5135153;27;20210;-86
2022/11/16 02:12:37;;;;;;;33.80;22.42;;;8.70;99.90;;;;;;5114725;28;20235;-85
2022/11/16 02:15:16;;;;;;;29.33;22.25;;;8.60;99.90;;;;;;5120140;27;20203;-84
2022/11/16 02:17:53;;;;;;;38.88;24.05;;;8.60;99.90;;;;;;5135028;27;20207;-85
2022/11/16 02:20:44;;;;;;;32.90;25.00;;;8.60;99.90;;;;;;5135258;27;20203;-81
2022/11/16 02:23:31;;;;;;;42.22;27.63;;;8.60;99.90;;;;;;5127364;27;20223;-81
2022/11/16 02:26:14;;;;;;;36.55;26.88;;;8.60;99.90;;;;;;5129312;27;20213;-81
2022/11/16 02:28:51;;;;;;;38.70;26.02;;;8.60;99.90;;;;;;5134782;27;20225;-81
2022/11/16 02:31:24;;;;;;;34.63;25.92;;;8.60;99.90;;;;;;5134905;27;20203;-80
2022/11/16 02:33:59;;;;;;;45.25;26.60;;;8.50;99.90;;;;;;5135076;27;20203;-85
2022/11/16 02:36:27;;;;;;;53.63;28.77;;;8.60;99.90;;;;;;5134734;27;20195;-85
2022/11/16 02:39:01;;;;;;;31.17;25.20;;;8.60;99.90;;;;;;5134659;27;20199;-85
2022/11/16 02:41:34;;;;;;;37.58;27.55;;;8.60;99.90;;;;;;5135055;27;20242;-85
2022/11/16 02:44:07;;;;;;;31.38;25.15;;;8.60;99.90;;;;;;5134712;27;20199;-85
2022/11/16 02:46:39;;;;;;;33.47;25.63;;;8.60;99.90;;;;;;5135012;27;20207;-85
2022/11/16 02:49:11;;;;;;;39.97;24.92;;;8.60;99.90;;;;;;5134313;27;20222;-85
2022/11/16 02:51:40;;;;;;;36.40;27.20;;;8.60;99.90;;;;;;5134663;27;20223;-85
2022/11/16 02:54:11;;;;;;;33.00;25.80;;;8.60;99.90;;;;;;5134274;27;20217;-85
2022/11/16 02:56:44;;;;;;;29.73;24.48;;;8.60;99.90;;;;;;5134461;27;20217;-85
2022/11/16 02:59:12;;;;;;;33.05;25.63;;;8.60;99.90;;;;;;5134073;27;20202;-85
2022/11/16 03:01:51;;;;;;;36.13;23.88;;;8.60;99.90;;;;;;5133680;27;20219;-85
2022/11/16 03:04:23;;;;;;;40.10;26.60;;;8.60;99.90;;;;;;5134317;27;20202;-85
2022/11/16 03:06:55;;;;;;;27.67;24.63;;;8.50;99.90;;;;;;5134224;27;20232;-86
2022/11/16 03:09:27;;;;;;;32.38;24.17;;;8.50;99.90;;;;;;5133972;27;20219;-85
2022/11/16 03:11:58;;;;;;;32.97;26.90;;;8.60;99.90;;;;;;5134228;27;20215;-85
2022/11/16 03:14:31;;;;;;;32.58;26.58;;;8.60;99.90;;;;;;5133939;27;20243;-85
2022/11/16 03:17:03;;;;;;;38.65;27.02;;;8.50;99.90;;;;;;5134151;27;20210;-85
2022/11/16 03:19:37;;;;;;;39.33;29.45;;;8.50;99.90;;;;;;5134026;27;20198;-85
2022/11/16 03:22:10;;;;;;;54.17;29.08;;;8.50;99.90;;;;;;5133819;27;20231;-85
2022/11/16 03:24:39;;;;;;;37.28;28.80;;;8.50;99.90;;;;;;5134436;27;20203;-85
2022/11/16 03:27:14;;;;;;;50.92;30.52;;;8.50;99.90;;;;;;5133344;27;20210;-85
2022/11/16 03:29:52;;;;;;;38.53;30.00;;;8.50;99.90;;;;;;5133292;27;20210;-84
2022/11/16 03:32:27;;;;;;;46.20;30.88;;;8.50;99.90;;;;;;5133390;27;20245;-82
2022/11/16 03:35:00;;;;;;;42.45;30.08;;;8.50;99.90;;;;;;5133940;27;20195;-81
2022/11/16 03:37:30;;;;;;;51.17;29.73;;;8.50;99.90;;;;;;5133442;27;20203;-81
2022/11/16 03:40:00;;;;;;;45.85;30.88;;;8.50;99.90;;;;;;5134181;27;20211;-81
2022/11/16 03:42:29;;;;;;;38.17;29.90;;;8.50;99.90;;;;;;5133813;27;20234;-81
2022/11/16 03:44:58;;;;;;;45.28;31.65;;;8.50;99.90;;;;;;5133962;27;20203;-82
2022/11/16 03:47:28;;;;;;;43.88;31.67;;;8.50;99.90;;;;;;5133192;27;20203;-84
2022/11/16 03:49:56;;;;;;;53.90;30.83;;;8.50;99.90;;;;;;5133452;27;20223;-86
2022/11/16 03:52:24;;;;;;;37.10;28.45;;;8.50;99.90;;;;;;5133762;27;20238;-85
2022/11/16 03:54:53;;;;;;;37.75;27.55;;;8.40;99.90;;;;;;5133659;27;20195;-85
2022/11/16 03:57:21;;;;;;;42.55;30.00;;;8.40;99.90;;;;;;5133386;27;20206;-85
2022/11/16 03:59:49;;;;;;;40.45;29.60;;;8.40;99.90;;;;;;5133171;27;20203;-85
2022/11/16 04:02:17;;;;;;;55.15;29.23;;;8.40;99.90;;;;;;5133133;27;20222;-84
2022/11/16 04:24:14;;;;;;;39.53;29.15;;;8.40;99.90;;;;;;5133077;28;20210;-85
2022/11/16 04:29:33;;;;;;;45.97;28.92;;;8.40;99.90;;;;;;5132714;28;20222;-85
2022/11/16 04:37:51;;;;;;;39.38;28.63;;;8.40;99.90;;;;;;5132970;27;20213;-81
2022/11/16 04:40:21;;;;;;;33.10;27.13;;;8.40;99.90;;;;;;5136876;27;20267;-81
2022/11/16 04:42:52;;;;;;;52.35;31.88;;;8.40;99.90;;;;;;5136455;27;20280;-80
2022/11/16 04:48:08;;;;;;;40.95;28.10;;;8.30;99.90;;;;;;5136879;27;20214;-81
2022/11/16 04:50:36;;;;;;;36.80;30.08;;;8.30;99.90;;;;;;5137007;27;20226;-81
2022/11/16 04:53:07;;;;;;;44.90;30.77;;;8.40;99.90;;;;;;5136344;27;20233;-81
2022/11/16 04:55:35;;;;;;;44.85;32.05;;;8.40;99.90;;;;;;5136746;27;20206;-81
2022/11/16 04:58:04;;;;;;;44.13;30.63;;;8.40;99.90;;;;;;5136352;27;20202;-85
2022/11/16 05:00:33;;;;;;;49.47;30.65;;;8.30;99.90;;;;;;5136168;27;20199;-85
2022/11/16 05:03:02;;;;;;;40.28;30.65;;;8.40;99.90;;;;;;5136452;27;20230;-85
2022/11/16 05:05:31;;;;;;;50.15;30.20;;;8.30;99.90;;;;;;5136261;27;20260;-87
2022/11/16 05:08:00;;;;;;;43.90;30.30;;;8.30;99.90;;;;;;5136655;27;20199;-86
2022/11/16 05:10:30;;;;;;;40.17;30.35;;;8.30;99.90;;;;;;5132420;27;20225;-81
2022/11/16 05:12:58;;;;;;;37.35;29.48;;;8.30;99.90;;;;;;5136457;27;20230;-81
2022/11/16 05:15:27;;;;;;;45.53;30.88;;;8.30;99.90;;;;;;5135696;27;20205;-81
2022/11/16 05:17:55;;;;;;;50.03;31.77;;;8.30;99.90;;;;;;5136686;27;20203;-81
2022/11/16 05:24:32;;;;;;;46.17;33.42;;;8.30;99.90;;;;;;5136134;27;20227;-81
2022/11/16 05:25:59;;;;;;;46.65;32.47;;;8.20;99.90;;;;;;5136328;27;20222;-81
2022/11/16 05:28:27;;;;;;;45.75;30.60;;;8.30;99.90;;;;;;5136699;27;20195;-81
2022/11/16 05:30:55;;;;;;;41.75;30.20;;;8.30;99.90;;;;;;5135788;27;20234;-81
2022/11/16 05:33:24;;;;;;;53.63;34.85;;;8.20;99.90;;;;;;5136284;27;20231;-81
2022/11/16 05:35:52;;;;;;;48.85;33.55;;;8.20;99.90;;;;;;5136292;27;20218;-80
2022/11/16 05:38:20;;;;;;;37.53;28.50;;;8.30;99.90;;;;;;5136003;27;20215;-81
2022/11/16 05:40:48;;;;;;;49.67;33.45;;;8.30;99.90;;;;;;5136363;27;20210;-80
2022/11/16 05:43:18;;;;;;;42.83;31.90;;;8.20;99.90;;;;;;5136206;27;20227;-81
2022/11/16 05:45:46;;;;;;;42.63;31.10;;;8.20;99.90;;;;;;5135859;27;20214;-81
2022/11/16 05:48:15;;;;;;;53.55;33.83;;;8.30;99.90;;;;;;5135617;27;20211;-81
2022/11/16 05:50:43;;;;;;;50.85;32.50;;;8.30;99.90;;;;;;5135050;27;20234;-81
2022/11/16 05:53:11;;;;;;;41.70;30.58;;;8.30;99.90;;;;;;5135981;27;20234;-82
2022/11/16 05:55:39;;;;;;;39.80;30.27;;;8.30;99.90;;;;;;5136103;27;20209;-82
2022/11/16 05:58:07;;;;;;;50.75;34.03;;;8.30;99.90;;;;;;5135492;27;20204;-82
2022/11/16 06:00:40;;;;;;;44.10;32.17;;;8.30;99.90;;;;;;5135199;27;20222;-82
2022/11/16 06:03:09;;;;;;;45.13;33.00;;;8.30;99.90;;;;;;5134736;27;20230;-82
2022/11/16 06:05:37;;;;;;;44.92;31.63;;;8.30;99.90;;;;;;5135725;27;20199;-82
2022/11/16 06:08:07;;;;;;;38.92;31.63;;;8.30;99.90;;;;;;5135372;27;20191;-86
2022/11/16 06:10:36;;;;;;;45.47;31.70;;;8.30;99.90;;;;;;5135135;27;20219;-87
2022/11/16 06:13:05;;;;;;;48.05;32.42;;;8.30;99.90;;;;;;5135662;27;20223;-86
2022/11/16 06:15:39;;;;;;;44.17;32.30;;;8.30;99.90;;;;;;5134854;27;20244;-86
2022/11/16 06:18:11;;;;;;;39.28;30.30;;;8.40;99.90;;;;;;5135058;27;20207;-86
2022/11/16 06:20:40;;;;;;;38.92;30.23;;;8.30;99.90;;;;;;5135546;27;20205;-86
2022/11/16 06:23:09;;;;;;;52.83;28.75;;;8.30;99.90;;;;;;5135052;27;20226;-86
2022/11/16 06:25:39;;;;;;;39.13;29.55;;;8.30;99.90;;;;;;5134711;27;20199;-86
2022/11/16 06:28:07;;;;;;;39.17;29.75;;;8.30;99.90;;;;;;5134249;27;20206;-86
2022/11/16 06:30:36;;;;;;;45.53;30.38;;;8.30;99.90;;;;;;5134216;27;20223;-86
2022/11/16 06:33:07;;;;;;;48.75;31.10;;;8.30;99.90;;;;;;5134820;27;20232;-86
2022/11/16 06:35:36;;;;;;;34.47;29.17;;;8.30;99.90;;;;;;5134929;27;20203;-86
2022/11/16 06:38:04;;;;;;;51.42;29.98;;;8.20;99.90;;;;;;5134623;27;20203;-86
2022/11/16 06:40:32;;;;;;;63.60;29.30;;;8.20;99.90;;;;;;5134190;27;20199;-85
2022/11/16 06:43:01;;;;;;;53.33;30.05;;;8.30;99.90;;;;;;5134825;27;20218;-86
2022/11/16 06:45:29;;;;;;;38.03;29.67;;;8.30;99.90;;;;;;5134551;27;20195;-85
2022/11/16 06:47:57;;;;;;;39.03;28.42;;;8.30;99.90;;;;;;5134370;27;20229;-86
2022/11/16 06:50:27;;;;;;;50.35;29.30;;;8.30;99.90;;;;;;5134376;27;20219;-86
2022/11/16 06:52:55;;;;;;;49.08;31.15;;;8.30;99.90;;;;;;5134204;27;20223;-86
2022/11/16 06:55:23;;;;;;;39.90;27.88;;;8.40;99.90;;;;;;5116566;27;20323;-88
2022/11/16 06:57:51;;;;;;;49.20;30.27;;;8.40;99.90;;;;;;5131257;27;20209;-90
2022/11/16 07:00:20;;;;;;;34.58;28.50;;;8.30;99.90;;;;;;5134331;27;20207;-89
2022/11/16 07:02:48;;;;;;;49.30;27.98;;;8.40;99.90;;;;;;5133651;27;20219;-88
2022/11/16 07:05:16;;;;;;;35.78;27.10;;;8.40;99.90;;;;;;5134144;27;20209;-88
2022/11/16 07:07:46;;;;;;;31.38;25.88;;;8.40;99.90;;;;;;5133473;27;20207;-88
2022/11/16 07:10:15;;;;;;;30.67;25.55;;;8.40;99.90;;;;;;5133759;27;20211;-88
2022/11/16 07:12:43;;;;;;;41.22;25.98;;;8.40;99.90;;;;;;5133096;27;20223;-88
2022/11/16 07:15:11;;;;;;;44.65;27.40;;;8.40;99.90;;;;;;5133681;27;20203;-88
2022/11/16 07:17:39;;;;;;;35.08;25.60;;;8.40;99.90;;;;;;5134399;27;20203;-88
2022/11/16 07:20:10;;;;;;;33.13;22.13;;;8.50;99.90;;;;;;5133812;27;20207;-88
2022/11/16 07:22:39;;;;;;;39.63;26.48;;;8.50;99.90;;;;;;5133570;27;20238;-88
2022/11/16 07:25:10;;;;;;;34.20;24.38;;;8.50;99.90;;;;;;5133930;27;20232;-88
2022/11/16 07:27:38;;;;;;;30.92;23.73;;;8.50;99.90;;;;;;5127958;27;20203;-88
2022/11/16 07:30:08;;;;;;;31.65;23.17;;;8.40;99.90;;;;;;5118323;27;20198;-88
2022/11/16 07:43:15;;;;;;;35.28;24.23;;;8.50;99.90;;;;;;5131851;27;20214;-88
2022/11/16 07:46:06;;;;;;;49.58;24.70;;;8.50;99.90;;;;;;5111859;28;20233;-88
2022/11/16 07:49:13;;;;;;;32.28;23.83;;;8.50;99.90;;;;;;5121559;27;20261;-83
2022/11/16 07:52:20;;;;;;;28.33;22.60;;;8.60;99.90;;;;;;5125877;27;20239;-83
2022/11/16 07:55:19;;;;;;;29.88;23.15;;;8.60;99.90;;;;;;5129422;27;20203;-83
2022/11/16 07:58:05;;;;;;;31.38;23.70;;;8.60;99.90;;;;;;5121995;27;20212;-87
2022/11/16 08:01:10;;;;;;;30.02;25.73;;;8.60;99.90;;;;;;5132138;27;20199;-88
2022/11/16 08:07:25;;;;;;;40.05;26.55;;;8.70;99.90;;;;;;5097115;28;20203;-83
2022/11/16 08:10:33;;;;;;;33.13;27.83;;;8.70;99.90;;;;;;5112395;28;20204;-87
2022/11/16 08:13:33;;;;;;;39.05;26.63;;;8.70;99.90;;;;;;5126399;27;20222;-87
2022/11/16 08:19:59;;;;;;;34.85;25.98;;;8.70;99.90;;;;;;5116374;27;20210;-86
2022/11/16 08:22:48;;;;;;;32.67;25.85;;;8.70;99.90;;;;;;5117982;28;20223;-87
2022/11/16 08:25:52;;;;;;;27.88;23.45;;;8.70;99.90;;;;;;5131378;27;20277;-83
2022/11/16 08:28:55;;;;;;;32.53;24.27;;;8.70;99.90;;;;;;5114443;28;20214;-83
2022/11/16 08:31:54;;;;;;;;;;;;;;;;;;;;;
2022/11/16 08:34:38;;;;;;;30.17;22.63;;;8.80;99.90;;;;;;5106706;27;20207;-83
2022/11/16 08:37:26;;;;;;;28.77;20.83;;;8.80;99.90;;;;;;5138190;27;20202;-83
2022/11/16 08:40:22;;;;;;;25.38;22.70;;;8.80;99.90;;;;;;5138463;27;20202;-85
2022/11/16 08:43:11;;;;;;;27.20;22.38;;;8.80;99.90;;;;;;5138814;27;20230;-85
2022/11/16 08:49:27;;;;;;;26.60;22.02;;;8.80;99.90;;;;;;5134586;27;20217;-82
2022/11/16 08:52:46;;;;;;;24.70;21.88;;;8.80;99.90;;;;;;5110492;27;20227;-82
2022/11/16 08:58:53;;;;;;;24.67;22.05;;;8.80;99.90;;;;;;5101165;27;20210;-82
2022/11/16 09:08:18;;;;;;;27.17;21.00;;;8.80;99.90;;;;;;5122738;27;20293;-86
2022/11/16 09:14:34;;;;;;;;;;;;;;;;;;;;;
2022/11/16 09:20:48;;;;;;;22.42;18.20;;;8.90;99.90;;;;;;5138374;27;20207;-83
2022/11/16 09:30:01;;;;;;;20.52;18.35;;;8.90;99.90;;;;;;5102783;27;20215;-83
2022/11/16 09:36:06;;;;;;;;;;;;;;;;;;;;;
2022/11/16 09:39:17;;;;;;;23.13;17.88;;;8.90;99.90;;;;;;5134892;27;20206;-84
2022/11/16 09:43:00;;;;;;;19.48;16.88;;;8.90;99.90;;;;;;5134745;27;20211;-84
2022/11/16 09:45:47;;;;;;;20.90;17.10;;;8.90;99.90;;;;;;5134724;27;20207;-85
2022/11/16 09:49:11;;;;;;;21.67;17.45;;;8.90;99.90;;;;;;5133889;27;20218;-84
2022/11/16 09:52:28;;;;;;;20.27;18.13;;;8.90;99.90;;;;;;5132299;27;20318;-83
2022/11/16 09:58:45;;;;;;;22.70;19.77;;;8.90;99.90;;;;;;5131314;27;20206;-84
2022/11/16 10:02:13;;;;;;;;;;;;;;;;;;;;;
2022/11/16 10:05:24;;;;;;;20.70;18.20;;;8.90;99.90;;;;;;5095641;27;20202;-84
2022/11/16 10:18:24;;;;;;;22.77;17.33;;;8.90;99.90;;;;;;5059868;28;20208;-83
2022/11/16 10:21:52;;;;;;;22.45;18.00;;;8.90;99.90;;;;;;5130214;27;20206;-84
2022/11/16 10:25:21;;;;;;;17.55;15.73;;;8.90;99.90;;;;;;5135620;27;20225;-83
2022/11/16 10:28:54;;;;;;;17.50;15.80;;;8.90;99.90;;;;;;5134820;27;20203;-84
2022/11/16 10:31:55;;;;;;;16.60;14.90;;;8.90;99.90;;;;;;5135123;27;20210;-83
2022/11/16 10:34:50;;;;;;;18.55;16.65;;;8.90;99.90;;;;;;5136000;27;20206;-83
2022/11/16 10:37:21;;;;;;;22.27;18.00;;;8.90;99.90;;;;;;5133523;27;20211;-83
2022/11/16 10:39:53;;;;;;;20.10;17.48;;;8.90;99.90;;;;;;5135304;27;20203;-83
2022/11/16 10:42:27;;;;;;;22.83;17.63;;;8.90;99.90;;;;;;5135263;27;20226;-85
2022/11/16 10:45:02;;;;;;;17.98;15.95;;;8.90;99.90;;;;;;5135202;27;20198;-84
2022/11/16 10:47:40;;;;;;;16.92;15.13;;;8.90;99.90;;;;;;5134703;27;20203;-85
2022/11/16 10:50:30;;;;;;;16.98;15.18;;;8.90;99.90;;;;;;5134517;27;20199;-84
2022/11/16 10:53:01;;;;;;;25.20;14.25;;;8.80;99.90;;;;;;5134632;27;20246;-84
2022/11/16 10:55:29;;;;;;;16.55;14.90;;;8.80;99.90;;;;;;5134775;27;20230;-84
2022/11/16 10:57:59;;;;;;;20.25;14.57;;;8.80;99.90;;;;;;5134694;27;20203;-84
2022/11/16 11:00:37;;;;;;;26.00;15.48;;;8.80;99.90;;;;;;5134827;27;20203;-84
2022/11/16 11:03:05;;;;;;;13.50;12.15;;;8.70;99.90;;;;;;5134010;27;20227;-84
2022/11/16 11:05:35;;;;;;;21.23;13.35;;;8.70;99.90;;;;;;5134509;27;20203;-84
2022/11/16 11:08:08;;;;;;;14.15;12.65;;;8.70;99.90;;;;;;5134277;27;20210;-84
2022/11/16 11:10:39;;;;;;;13.55;11.63;;;8.70;99.90;;;;;;5134578;27;20206;-84
2022/11/16 11:13:22;;;;;;;12.73;11.45;;;8.70;99.90;;;;;;5134385;27;20234;-84
2022/11/16 11:15:52;;;;;;;14.95;12.18;;;8.70;99.90;;;;;;5134547;27;20215;-84
2022/11/16 11:18:26;;;;;;;13.60;12.07;;;8.70;99.90;;;;;;5134460;27;20207;-84
2022/11/16 11:21:06;;;;;;;15.90;13.23;;;8.70;99.90;;;;;;5134412;27;20210;-84
2022/11/16 11:23:46;;;;;;;13.63;12.32;;;8.70;99.90;;;;;;5134183;27;20222;-84
2022/11/16 11:26:29;;;;;;;13.07;11.80;;;8.70;99.90;;;;;;5134417;27;20226;-84
2022/11/16 11:29:15;;;;;;;17.52;11.65;;;8.70;99.90;;;;;;5134105;27;20302;-84
2022/11/16 11:31:46;;;;;;;12.82;11.52;;;8.80;99.90;;;;;;5133757;27;20226;-84
2022/11/16 11:34:17;;;;;;;13.68;12.27;;;8.80;99.90;;;;;;5133586;27;20222;-84
2022/11/16 11:36:49;;;;;;;11.52;10.02;;;8.90;99.90;;;;;;5134141;27;20199;-84
2022/11/16 11:39:32;;;;;;;19.35;9.68;;;8.90;99.90;;;;;;5134149;27;20203;-84
2022/11/16 11:42:04;;;;;;;12.77;11.45;;;8.90;99.90;;;;;;5133617;27;20225;-84
2022/11/16 11:44:38;;;;;;;12.93;10.38;;;8.90;99.90;;;;;;5133921;27;20199;-84
2022/11/16 11:47:23;;;;;;;10.80;9.80;;;9.00;99.90;;;;;;5133387;27;20203;-85
2022/11/16 11:50:16;;;;;;;11.10;9.80;;;9.10;99.90;;;;;;5133201;27;20199;-85
2022/11/16 11:52:57;;;;;;;12.73;9.32;;;9.10;99.90;;;;;;5133979;27;20233;-85
2022/11/16 11:55:28;;;;;;;10.57;9.55;;;9.10;99.90;;;;;;5133958;27;20207;-85
2022/11/16 11:57:58;;;;;;;11.27;10.10;;;9.20;99.90;;;;;;5134053;27;20218;-85
2022/11/16 12:00:29;;;;;;;12.30;10.68;;;9.20;99.90;;;;;;5133764;27;20207;-85
2022/11/16 12:03:39;;;;;;;13.23;10.80;;;9.20;99.90;;;;;;5133674;27;20215;-84
2022/11/16 12:06:15;;;;;;;10.77;8.60;;;9.20;99.90;;;;;;5117227;27;20207;-84
2022/11/16 12:09:04;;;;;;;11.27;9.25;;;9.20;99.90;;;;;;5133566;27;20213;-83
2022/11/16 12:11:45;;;;;;;9.63;8.63;;;9.30;99.90;;;;;;5123275;28;20286;-84
2022/11/16 12:14:49;;;;;;;9.68;8.68;;;9.30;99.90;;;;;;5133265;28;20233;-83
2022/11/16 12:17:30;;;;;;;8.82;8.02;;;9.30;99.90;;;;;;5133416;28;20215;-84
2022/11/16 12:20:21;;;;;;;10.98;9.65;;;9.30;99.90;;;;;;5133801;28;20210;-84
2022/11/16 12:23:19;;;;;;;9.73;8.82;;;9.30;99.90;;;;;;5133338;28;20235;-83
2022/11/16 12:25:55;;;;;;;9.05;8.18;;;9.30;99.90;;;;;;5107480;28;20210;-84
2022/11/16 12:28:40;;;;;;;9.60;8.07;;;9.30;99.90;;;;;;5133565;28;20217;-83
2022/11/16 12:31:27;;;;;;;14.73;10.35;;;9.20;99.90;;;;;;5133642;28;20203;-84
2022/11/16 12:34:04;;;;;;;14.63;11.63;;;9.10;99.90;;;;;;5133122;28;20254;-84
2022/11/16 12:36:40;;;;;;;17.70;11.23;;;9.00;99.90;;;;;;5133254;28;20220;-84
2022/11/16 12:39:22;;;;;;;16.10;11.70;;;8.80;99.90;;;;;;5133258;28;20202;-84
2022/11/16 12:42:35;;;;;;;13.57;10.82;;;8.60;99.90;;;;;;5133424;28;20234;-85
2022/11/16 12:45:17;;;;;;;12.65;10.00;;;8.60;99.90;;;;;;5050585;28;20205;-84
2022/11/16 12:48:11;;;;;;;11.43;10.07;;;8.50;99.90;;;;;;5049763;28;20214;-84
2022/11/16 12:50:51;;;;;;;16.67;11.20;;;8.40;99.90;;;;;;5110177;28;20203;-84
2022/11/16 12:53:33;;;;;;;14.75;10.80;;;8.40;99.90;;;;;;5133234;28;20229;-84
2022/11/16 12:56:11;;;;;;;13.93;11.38;;;8.30;99.90;;;;;;5133123;28;20232;-84
2022/11/16 12:58:56;;;;;;;13.98;10.27;;;8.30;99.90;;;;;;5133348;27;20207;-84
2022/11/16 13:01:33;;;;;;;12.98;10.98;;;8.30;99.90;;;;;;5134613;27;20221;-84
2022/11/16 13:04:07;;;;;;;14.98;11.05;;;8.30;99.90;;;;;;5134485;27;20227;-84
2022/11/16 13:06:42;;;;;;;11.55;10.35;;;8.20;99.90;;;;;;5134744;27;20226;-82
2022/11/16 13:09:14;;;;;;;10.93;9.77;;;8.20;99.90;;;;;;5134923;27;20218;-83
2022/11/16 13:11:47;;;;;;;10.93;9.57;;;8.30;99.90;;;;;;5134437;27;20231;-85
2022/11/16 13:14:19;;;;;;;11.65;9.88;;;8.20;99.90;;;;;;5134605;27;20258;-82
2022/11/16 13:16:51;;;;;;;11.82;9.13;;;8.30;99.90;;;;;;5134664;27;20215;-82
2022/11/16 13:19:20;;;;;;;11.73;9.77;;;8.30;99.90;;;;;;5135088;27;20295;-82
2022/11/16 13:21:55;;;;;;;12.45;9.38;;;8.40;99.90;;;;;;5134713;27;20231;-81
2022/11/16 13:24:33;;;;;;;9.27;8.38;;;8.40;99.90;;;;;;5134711;27;20211;-84
2022/11/16 13:27:15;;;;;;;8.35;7.32;;;8.40;99.90;;;;;;5134258;27;20210;-84
2022/11/16 13:29:48;;;;;;;11.75;9.25;;;8.40;99.90;;;;;;5134219;27;20210;-83
2022/11/16 13:32:24;;;;;;;12.50;8.75;;;8.40;99.90;;;;;;5133910;27;20234;-84
2022/11/16 13:34:53;;;;;;;8.10;7.30;;;8.50;99.90;;;;;;5134636;27;20238;-84
2022/11/16 13:37:46;;;;;;;8.90;8.00;;;8.50;99.90;;;;;;5134721;27;20210;-83
2022/11/16 13:40:26;;;;;;;13.65;8.32;;;8.50;99.90;;;;;;5123009;27;20222;-84
2022/11/16 13:43:14;;;;;;;9.00;7.60;;;8.50;99.90;;;;;;5133938;27;20229;-83
2022/11/16 13:45:44;;;;;;;9.30;7.45;;;8.50;99.90;;;;;;5134409;27;20207;-84
2022/11/16 13:48:21;;;;;;;19.08;7.85;;;8.60;99.90;;;;;;5133472;27;20203;-84
2022/11/16 13:50:53;;;;;;;8.25;7.35;;;8.60;99.90;;;;;;5134366;27;20221;-84
2022/11/16 13:53:30;;;;;;;9.45;8.50;;;8.70;99.90;;;;;;5133465;27;20263;-84
2022/11/16 13:56:20;;;;;;;9.00;7.85;;;8.80;99.90;;;;;;5133534;27;20267;-84
2022/11/16 13:58:55;;;;;;;7.88;7.10;;;8.80;99.90;;;;;;5133494;27;20218;-84
2022/11/16 14:01:25;;;;;;;7.30;6.60;;;8.90;99.90;;;;;;5133888;27;20216;-84
2022/11/16 14:04:36;;;;;;;8.98;7.32;;;8.90;99.90;;;;;;5133862;27;20236;-84
2022/11/16 14:07:04;;;;;;;8.23;6.88;;;8.90;99.90;;;;;;5126947;27;20210;-84
2022/11/16 14:09:43;;;;;;;8.63;7.18;;;8.90;99.90;;;;;;5133615;27;20215;-84
2022/11/16 14:12:49;;;;;;;8.10;7.30;;;8.90;99.90;;;;;;5133110;27;20227;-84
2022/11/16 14:15:19;;;;;;;7.03;6.32;;;8.90;99.90;;;;;;5133336;27;20233;-82
2022/11/16 14:17:52;;;;;;;6.63;5.95;;;8.90;99.90;;;;;;5133241;27;20214;-82
2022/11/16 14:20:47;;;;;;;8.10;7.30;;;8.90;99.90;;;;;;5133604;27;20207;-85
2022/11/16 14:23:40;;;;;;;7.90;6.88;;;8.90;99.90;;;;;;5116915;27;20233;-85
2022/11/16 14:26:24;;;;;;;10.75;8.15;;;8.90;99.90;;;;;;5130366;27;20215;-84
2022/11/16 14:29:18;;;;;;;8.00;7.20;;;8.90;99.90;;;;;;5133289;27;20210;-82
2022/11/16 14:31:51;;;;;;;6.80;6.20;;;8.90;99.90;;;;;;5133660;27;20223;-82
2022/11/16 14:34:22;;;;;;;7.15;6.25;;;8.80;99.90;;;;;;5135032;27;20215;-82
2022/11/16 14:36:55;;;;;;;14.30;8.57;;;8.80;99.90;;;;;;5135056;27;20229;-82
2022/11/16 14:39:31;;;;;;;10.55;7.25;;;8.80;99.90;;;;;;5135309;27;20207;-84
2022/11/16 14:42:02;;;;;;;8.85;7.40;;;8.80;99.90;;;;;;5135250;27;20253;-84
2022/11/16 14:44:33;;;;;;;9.88;7.25;;;8.80;99.90;;;;;;5135122;27;20206;-84
2022/11/16 14:47:03;;;;;;;8.68;7.35;;;8.80;99.90;;;;;;5135011;27;20207;-84
2022/11/16 14:49:35;;;;;;;10.60;7.97;;;8.70;99.90;;;;;;5134725;27;20203;-84
2022/11/16 14:52:07;;;;;;;8.48;7.60;;;8.70;99.90;;;;;;5134974;27;20230;-84
2022/11/16 14:54:41;;;;;;;12.00;7.88;;;8.70;99.90;;;;;;5135066;27;20231;-84
2022/11/16 14:57:20;;;;;;;9.43;8.05;;;8.70;99.90;;;;;;5134970;27;20202;-84
2022/11/16 14:59:49;;;;;;;9.38;7.18;;;8.70;99.90;;;;;;5135182;27;20222;-84
2022/11/16 15:02:22;;;;;;;8.98;7.75;;;8.70;99.90;;;;;;5135097;27;20230;-84
2022/11/16 15:04:52;;;;;;;9.88;8.57;;;8.70;99.90;;;;;;5134343;27;20199;-84
2022/11/16 15:07:26;;;;;;;7.60;6.78;;;8.70;99.90;;;;;;5134676;27;20211;-84
2022/11/16 15:09:57;;;;;;;9.15;8.13;;;8.70;99.90;;;;;;5134410;27;20199;-84
2022/11/16 15:12:45;;;;;;;8.18;7.38;;;8.70;99.90;;;;;;5134490;27;20222;-84
2022/11/16 15:15:16;;;;;;;10.10;8.15;;;8.70;99.90;;;;;;5134242;27;20222;-84
2022/11/16 15:17:46;;;;;;;10.02;7.65;;;8.70;99.90;;;;;;5134334;27;20203;-84